sensor_id;sensor_type;location;lat;lon;timestamp;pressure;altitude;pressure_sealevel;temperature;humidity
60918;BME280;46792;38.854;-9.384;2023-06-22T00:00:27;99694.84;;;23.92;63.99
60918;BME280;46792;38.854;-9.384;2023-06-22T00:02:28;99697.59;;;23.92;64.08
60918;BME280;46792;38.854;-9.384;2023-06-22T00:04:28;99695.53;;;23.89;64.11
60918;BME280;46792;38.854;-9.384;2023-06-22T00:06:29;99689.22;;;23.89;64.08
60918;BME280;46792;38.854;-9.384;2023-06-22T00:08:30;99681.38;;;23.91;63.97
60918;BME280;46792;38.854;-9.384;2023-06-22T00:10:30;99694.13;;;23.95;63.85
60918;BME280;46792;38.854;-9.384;2023-06-22T00:12:31;99686.19;;;23.94;63.66
60918;BME280;46792;38.854;-9.384;2023-06-22T00:14:35;99686.78;;;23.99;63.47
60918;BME280;46792;38.854;-9.384;2023-06-22T00:19:15;99688.63;;;23.95;63.69
60918;BME280;46792;38.854;-9.384;2023-06-22T00:21:16;99684.75;;;23.96;63.54
60918;BME280;46792;38.854;-9.384;2023-06-22T00:23:16;99688.75;;;23.99;63.21
60918;BME280;46792;38.854;-9.384;2023-06-22T00:25:17;99689.84;;;24.10;62.50
60918;BME280;46792;38.854;-9.384;2023-06-22T00:27:18;99688.50;;;24.04;62.48
60918;BME280;46792;38.854;-9.384;2023-06-22T00:29:18;99694.91;;;24.08;62.46
60918;BME280;46792;38.854;-9.384;2023-06-22T00:31:19;99684.38;;;23.98;62.83
60918;BME280;46792;38.854;-9.384;2023-06-22T00:33:20;99690.94;;;23.93;62.97
60918;BME280;46792;38.854;-9.384;2023-06-22T00:35:20;99693.75;;;23.81;63.68
60918;BME280;46792;38.854;-9.384;2023-06-22T00:37:42;99685.09;;;23.82;63.48
60918;BME280;46792;38.854;-9.384;2023-06-22T00:39:43;99683.09;;;23.95;63.46
60918;BME280;46792;38.854;-9.384;2023-06-22T00:41:44;99681.19;;;23.83;63.40
60918;BME280;46792;38.854;-9.384;2023-06-22T00:43:44;99681.56;;;23.82;63.40
60918;BME280;46792;38.854;-9.384;2023-06-22T00:45:45;99689.00;;;23.81;63.55
60918;BME280;46792;38.854;-9.384;2023-06-22T00:47:46;99684.66;;;23.80;63.34
60918;BME280;46792;38.854;-9.384;2023-06-22T00:50:06;99683.66;;;23.73;63.75
60918;BME280;46792;38.854;-9.384;2023-06-22T00:52:07;99696.72;;;23.76;63.79
60918;BME280;46792;38.854;-9.384;2023-06-22T00:54:09;99691.31;;;23.79;63.63
60918;BME280;46792;38.854;-9.384;2023-06-22T00:56:12;99685.25;;;23.74;63.65
60918;BME280;46792;38.854;-9.384;2023-06-22T00:58:13;99685.00;;;23.79;63.54
60918;BME280;46792;38.854;-9.384;2023-06-22T01:00:36;99680.19;;;23.76;63.44
60918;BME280;46792;38.854;-9.384;2023-06-22T01:02:37;99686.63;;;23.80;63.01
60918;BME280;46792;38.854;-9.384;2023-06-22T01:04:57;99682.84;;;23.72;63.22
60918;BME280;46792;38.854;-9.384;2023-06-22T01:07:14;99682.94;;;23.76;62.99
60918;BME280;46792;38.854;-9.384;2023-06-22T01:09:32;99685.47;;;23.68;63.34
60918;BME280;46792;38.854;-9.384;2023-06-22T01:11:39;99683.44;;;23.65;64.08
60918;BME280;46792;38.854;-9.384;2023-06-22T01:13:57;99688.00;;;23.74;63.26
60918;BME280;46792;38.854;-9.384;2023-06-22T01:16:03;99687.09;;;23.69;63.76
60918;BME280;46792;38.854;-9.384;2023-06-22T01:18:08;99692.59;;;23.69;63.67
60918;BME280;46792;38.854;-9.384;2023-06-22T01:20:10;99689.84;;;23.69;63.69
60918;BME280;46792;38.854;-9.384;2023-06-22T01:22:16;99687.56;;;23.72;63.55
60918;BME280;46792;38.854;-9.384;2023-06-22T01:26:49;99680.69;;;23.65;63.98
60918;BME280;46792;38.854;-9.384;2023-06-22T01:28:55;99687.78;;;23.66;63.88
60918;BME280;46792;38.854;-9.384;2023-06-22T01:30:57;99689.28;;;23.64;63.78
60918;BME280;46792;38.854;-9.384;2023-06-22T01:33:24;99691.72;;;23.65;64.00
60918;BME280;46792;38.854;-9.384;2023-06-22T01:35:26;99697.47;;;23.60;64.12
60918;BME280;46792;38.854;-9.384;2023-06-22T01:39:47;99689.28;;;23.64;63.96
60918;BME280;46792;38.854;-9.384;2023-06-22T01:41:49;99681.81;;;23.77;63.29
60918;BME280;46792;38.854;-9.384;2023-06-22T01:43:51;99683.56;;;23.69;63.34
60918;BME280;46792;38.854;-9.384;2023-06-22T01:45:55;99674.72;;;23.63;63.38
60918;BME280;46792;38.854;-9.384;2023-06-22T01:53:12;99679.38;;;23.47;64.04
60918;BME280;46792;38.854;-9.384;2023-06-22T01:55:13;99680.03;;;23.56;63.81
60918;BME280;46792;38.854;-9.384;2023-06-22T01:57:14;99681.75;;;23.48;64.10
60918;BME280;46792;38.854;-9.384;2023-06-22T01:59:25;99677.50;;;23.51;63.91
60918;BME280;46792;38.854;-9.384;2023-06-22T02:01:43;99678.19;;;23.60;63.64
60918;BME280;46792;38.854;-9.384;2023-06-22T02:03:49;99680.50;;;23.46;64.03
60918;BME280;46792;38.854;-9.384;2023-06-22T02:06:06;99680.28;;;23.38;64.50
60918;BME280;46792;38.854;-9.384;2023-06-22T02:08:36;99680.06;;;23.44;64.01
60918;BME280;46792;38.854;-9.384;2023-06-22T02:10:57;99682.22;;;23.50;63.80
60918;BME280;46792;38.854;-9.384;2023-06-22T02:13:00;99688.69;;;23.42;63.72
60918;BME280;46792;38.854;-9.384;2023-06-22T02:15:20;99686.72;;;23.43;64.34
60918;BME280;46792;38.854;-9.384;2023-06-22T02:17:40;99695.06;;;23.46;64.18
60918;BME280;46792;38.854;-9.384;2023-06-22T02:19:45;99701.19;;;23.39;64.31
60918;BME280;46792;38.854;-9.384;2023-06-22T02:21:46;99698.31;;;23.36;64.68
60918;BME280;46792;38.854;-9.384;2023-06-22T02:23:47;99703.47;;;23.37;64.52
60918;BME280;46792;38.854;-9.384;2023-06-22T02:28:27;99714.63;;;23.29;64.73
60918;BME280;46792;38.854;-9.384;2023-06-22T02:30:28;99714.75;;;23.32;64.70
60918;BME280;46792;38.854;-9.384;2023-06-22T02:35:11;99707.50;;;23.40;64.62
60918;BME280;46792;38.854;-9.384;2023-06-22T02:37:21;99708.16;;;23.49;64.29
60918;BME280;46792;38.854;-9.384;2023-06-22T02:39:25;99710.00;;;23.45;64.10
60918;BME280;46792;38.854;-9.384;2023-06-22T02:41:26;99703.47;;;23.37;64.40
60918;BME280;46792;38.854;-9.384;2023-06-22T02:45:49;99708.06;;;23.46;63.52
60918;BME280;46792;38.854;-9.384;2023-06-22T02:51:06;99706.47;;;23.45;63.47
60918;BME280;46792;38.854;-9.384;2023-06-22T02:53:25;99704.84;;;23.44;63.38
60918;BME280;46792;38.854;-9.384;2023-06-22T02:55:26;99712.28;;;23.43;63.43
60918;BME280;46792;38.854;-9.384;2023-06-22T03:02:34;99703.34;;;23.46;63.09
60918;BME280;46792;38.854;-9.384;2023-06-22T03:04:54;99705.31;;;23.46;63.29
60918;BME280;46792;38.854;-9.384;2023-06-22T03:06:55;99698.91;;;23.29;63.89
60918;BME280;46792;38.854;-9.384;2023-06-22T03:09:00;99697.75;;;23.30;63.70
60918;BME280;46792;38.854;-9.384;2023-06-22T03:11:02;99706.25;;;23.25;63.87
60918;BME280;46792;38.854;-9.384;2023-06-22T03:13:22;99693.63;;;23.24;63.85
60918;BME280;46792;38.854;-9.384;2023-06-22T03:15:22;99700.94;;;23.20;64.04
60918;BME280;46792;38.854;-9.384;2023-06-22T03:17:23;99698.09;;;23.29;63.85
60918;BME280;46792;38.854;-9.384;2023-06-22T03:19:23;99701.88;;;23.12;64.59
60918;BME280;46792;38.854;-9.384;2023-06-22T03:21:27;99705.78;;;23.11;65.03
60918;BME280;46792;38.854;-9.384;2023-06-22T03:23:28;99694.84;;;23.14;64.88
60918;BME280;46792;38.854;-9.384;2023-06-22T03:25:29;99692.56;;;23.16;64.88
60918;BME280;46792;38.854;-9.384;2023-06-22T03:27:30;99698.19;;;23.20;64.63
60918;BME280;46792;38.854;-9.384;2023-06-22T03:29:31;99696.47;;;23.15;64.76
60918;BME280;46792;38.854;-9.384;2023-06-22T03:31:53;99692.56;;;23.16;64.77
60918;BME280;46792;38.854;-9.384;2023-06-22T03:34:12;99696.47;;;23.15;64.64
60918;BME280;46792;38.854;-9.384;2023-06-22T03:38:51;99691.75;;;23.03;64.92
60918;BME280;46792;38.854;-9.384;2023-06-22T03:40:52;99700.94;;;23.07;64.80
60918;BME280;46792;38.854;-9.384;2023-06-22T03:46:44;99712.41;;;23.09;64.91
60918;BME280;46792;38.854;-9.384;2023-06-22T03:48:46;99714.03;;;23.11;64.93
60918;BME280;46792;38.854;-9.384;2023-06-22T03:50:46;99712.63;;;23.04;64.70
60918;BME280;46792;38.854;-9.384;2023-06-22T03:52:47;99717.94;;;23.09;64.79
60918;BME280;46792;38.854;-9.384;2023-06-22T03:57:07;99708.75;;;23.05;64.26
60918;BME280;46792;38.854;-9.384;2023-06-22T03:59:07;99705.53;;;23.03;64.69
60918;BME280;46792;38.854;-9.384;2023-06-22T04:01:26;99712.66;;;23.17;64.29
60918;BME280;46792;38.854;-9.384;2023-06-22T04:03:45;99714.03;;;23.11;64.60
60918;BME280;46792;38.854;-9.384;2023-06-22T04:05:48;99714.03;;;22.98;64.77
60918;BME280;46792;38.854;-9.384;2023-06-22T04:07:49;99710.59;;;23.01;64.43
60918;BME280;46792;38.854;-9.384;2023-06-22T04:09:49;99703.13;;;23.02;64.56
60918;BME280;46792;38.854;-9.384;2023-06-22T04:11:50;99713.78;;;23.03;64.55
60918;BME280;46792;38.854;-9.384;2023-06-22T04:13:50;99714.03;;;23.11;64.32
60918;BME280;46792;38.854;-9.384;2023-06-22T04:20:31;99713.09;;;23.19;63.64
60918;BME280;46792;38.854;-9.384;2023-06-22T04:22:35;99709.09;;;23.16;63.20
60918;BME280;46792;38.854;-9.384;2023-06-22T04:24:35;99713.00;;;23.15;63.39
60918;BME280;46792;38.854;-9.384;2023-06-22T04:26:54;99716.31;;;23.08;63.67
60918;BME280;46792;38.854;-9.384;2023-06-22T04:34:14;99723.66;;;23.04;63.86
60918;BME280;46792;38.854;-9.384;2023-06-22T04:36:40;99729.06;;;23.01;63.83
60918;BME280;46792;38.854;-9.384;2023-06-22T04:41:56;99738.00;;;22.98;64.40
60918;BME280;46792;38.854;-9.384;2023-06-22T04:44:00;99740.75;;;22.85;65.01
60918;BME280;46792;38.854;-9.384;2023-06-22T04:46:19;99746.13;;;22.82;65.07
60918;BME280;46792;38.854;-9.384;2023-06-22T04:50:59;99740.38;;;22.87;64.63
60918;BME280;46792;38.854;-9.384;2023-06-22T04:53:03;99742.91;;;22.79;64.92
60918;BME280;46792;38.854;-9.384;2023-06-22T04:57:45;99747.38;;;22.84;64.76
60918;BME280;46792;38.854;-9.384;2023-06-22T05:00:07;99750.50;;;22.95;64.24
60918;BME280;46792;38.854;-9.384;2023-06-22T05:02:17;99756.00;;;22.95;64.24
60918;BME280;46792;38.854;-9.384;2023-06-22T05:04:17;99757.72;;;23.00;64.11
60918;BME280;46792;38.854;-9.384;2023-06-22T05:06:18;99755.56;;;23.05;63.77
60918;BME280;46792;38.854;-9.384;2023-06-22T05:08:19;99755.22;;;23.07;63.69
60918;BME280;46792;38.854;-9.384;2023-06-22T05:15:36;99753.09;;;22.79;65.11
60918;BME280;46792;38.854;-9.384;2023-06-22T05:17:40;99755.31;;;22.86;64.94
60918;BME280;46792;38.854;-9.384;2023-06-22T05:19:43;99752.09;;;22.84;64.96
60918;BME280;46792;38.854;-9.384;2023-06-22T05:21:45;99750.59;;;22.74;65.24
60918;BME280;46792;38.854;-9.384;2023-06-22T05:23:46;99749.31;;;22.71;65.43
60918;BME280;46792;38.854;-9.384;2023-06-22T05:25:46;99753.56;;;22.69;65.78
60918;BME280;46792;38.854;-9.384;2023-06-22T05:27:47;99756.22;;;22.77;65.29
60918;BME280;46792;38.854;-9.384;2023-06-22T05:29:47;99755.97;;;22.70;65.73
60918;BME280;46792;38.854;-9.384;2023-06-22T05:31:49;99750.59;;;22.74;65.49
60918;BME280;46792;38.854;-9.384;2023-06-22T05:34:08;99758.72;;;22.70;65.87
60918;BME280;46792;38.854;-9.384;2023-06-22T05:36:27;99754.81;;;22.71;65.71
60918;BME280;46792;38.854;-9.384;2023-06-22T05:38:28;99758.28;;;22.68;66.29
60918;BME280;46792;38.854;-9.384;2023-06-22T05:40:28;99751.38;;;22.62;66.45
60918;BME280;46792;38.854;-9.384;2023-06-22T05:42:29;99750.56;;;22.61;67.00
60918;BME280;46792;38.854;-9.384;2023-06-22T05:44:29;99752.31;;;22.66;66.90
60918;BME280;46792;38.854;-9.384;2023-06-22T05:46:30;99760.28;;;22.59;67.19
60918;BME280;46792;38.854;-9.384;2023-06-22T05:48:49;99756.50;;;22.51;67.42
60918;BME280;46792;38.854;-9.384;2023-06-22T05:50:49;99756.97;;;22.66;66.99
60918;BME280;46792;38.854;-9.384;2023-06-22T05:52:50;99758.47;;;22.63;67.03
60918;BME280;46792;38.854;-9.384;2023-06-22T05:55:09;99758.69;;;22.58;67.25
60918;BME280;46792;38.854;-9.384;2023-06-22T05:57:10;99765.72;;;22.68;67.10
60918;BME280;46792;38.854;-9.384;2023-06-22T05:59:29;99771.56;;;22.66;67.03
60918;BME280;46792;38.854;-9.384;2023-06-22T06:01:30;99778.88;;;22.62;67.38
60918;BME280;46792;38.854;-9.384;2023-06-22T06:03:34;99777.63;;;22.59;67.37
60918;BME280;46792;38.854;-9.384;2023-06-22T06:05:41;99781.44;;;22.67;67.23
60918;BME280;46792;38.854;-9.384;2023-06-22T06:07:42;99780.13;;;22.64;67.36
60918;BME280;46792;38.854;-9.384;2023-06-22T06:09:48;99778.53;;;22.63;67.57
60918;BME280;46792;38.854;-9.384;2023-06-22T06:11:49;99785.56;;;22.73;67.34
60918;BME280;46792;38.854;-9.384;2023-06-22T06:13:50;99786.03;;;22.75;67.53
60918;BME280;46792;38.854;-9.384;2023-06-22T06:16:09;99796.34;;;22.78;67.57
60918;BME280;46792;38.854;-9.384;2023-06-22T06:23:27;99809.56;;;22.98;67.21
60918;BME280;46792;38.854;-9.384;2023-06-22T06:25:28;99807.41;;;23.03;67.10
60918;BME280;46792;38.854;-9.384;2023-06-22T06:27:29;99798.91;;;22.96;67.47
60918;BME280;46792;38.854;-9.384;2023-06-22T06:29:30;99807.50;;;22.94;67.52
60918;BME280;46792;38.854;-9.384;2023-06-22T06:31:31;99810.63;;;23.05;67.28
60918;BME280;46792;38.854;-9.384;2023-06-22T06:33:31;99796.94;;;22.97;67.80
60918;BME280;46792;38.854;-9.384;2023-06-22T06:37:51;99798.69;;;23.01;67.92
60918;BME280;46792;38.854;-9.384;2023-06-22T06:39:52;99801.00;;;23.12;67.63
60918;BME280;46792;38.854;-9.384;2023-06-22T06:46:50;99809.97;;;23.21;67.86
60918;BME280;46792;38.854;-9.384;2023-06-22T06:48:50;99799.44;;;23.23;67.78
60918;BME280;46792;38.854;-9.384;2023-06-22T06:50:51;99814.47;;;23.26;68.04
60918;BME280;46792;38.854;-9.384;2023-06-22T06:52:51;99812.13;;;23.03;68.84
60918;BME280;46792;38.854;-9.384;2023-06-22T06:54:52;99814.69;;;23.33;67.91
60918;BME280;46792;38.854;-9.384;2023-06-22T06:56:53;99815.97;;;23.48;67.35
60918;BME280;46792;38.854;-9.384;2023-06-22T06:58:53;99819.63;;;23.52;67.62
60918;BME280;46792;38.854;-9.384;2023-06-22T07:01:13;99816.88;;;23.64;67.32
60918;BME280;46792;38.854;-9.384;2023-06-22T07:03:32;99829.25;;;23.70;67.17
60918;BME280;46792;38.854;-9.384;2023-06-22T07:05:33;99829.03;;;23.51;67.41
60918;BME280;46792;38.854;-9.384;2023-06-22T07:09:53;99827.53;;;23.78;66.65
60918;BME280;46792;38.854;-9.384;2023-06-22T07:11:54;99825.56;;;23.91;66.18
60918;BME280;46792;38.854;-9.384;2023-06-22T07:16:32;99831.34;;;23.74;66.64
60918;BME280;46792;38.854;-9.384;2023-06-22T07:18:33;99839.16;;;23.59;67.40
60918;BME280;46792;38.854;-9.384;2023-06-22T07:20:52;99827.78;;;23.73;66.82
60918;BME280;46792;38.854;-9.384;2023-06-22T07:23:11;99828.56;;;23.86;66.15
60918;BME280;46792;38.854;-9.384;2023-06-22T07:25:12;99839.00;;;23.93;65.83
60918;BME280;46792;38.854;-9.384;2023-06-22T07:27:17;99842.25;;;23.70;66.54
60918;BME280;46792;38.854;-9.384;2023-06-22T07:29:20;99840.84;;;23.76;65.87
60918;BME280;46792;38.854;-9.384;2023-06-22T07:31:24;99833.06;;;24.03;65.75
60918;BME280;46792;38.854;-9.384;2023-06-22T07:33:25;99845.28;;;24.30;65.02
60918;BME280;46792;38.854;-9.384;2023-06-22T07:35:26;99845.44;;;24.09;65.56
60918;BME280;46792;38.854;-9.384;2023-06-22T07:37:27;99841.91;;;23.96;65.81
60918;BME280;46792;38.854;-9.384;2023-06-22T07:39:28;99836.50;;;23.75;65.56
60918;BME280;46792;38.854;-9.384;2023-06-22T07:41:47;99846.72;;;24.12;64.13
60918;BME280;46792;38.854;-9.384;2023-06-22T07:43:50;99846.59;;;23.83;64.89
60918;BME280;46792;38.854;-9.384;2023-06-22T07:45:51;99845.56;;;24.13;64.32
60918;BME280;46792;38.854;-9.384;2023-06-22T07:47:55;99842.47;;;24.43;63.49
60918;BME280;46792;38.854;-9.384;2023-06-22T07:49:58;99840.47;;;24.27;63.66
60918;BME280;46792;38.854;-9.384;2023-06-22T07:52:01;99848.31;;;24.41;62.79
60918;BME280;46792;38.854;-9.384;2023-06-22T07:54:21;99843.53;;;24.26;63.95
60918;BME280;46792;38.854;-9.384;2023-06-22T07:56:21;99849.09;;;24.13;63.88
60918;BME280;46792;38.854;-9.384;2023-06-22T07:58:40;99851.69;;;24.35;63.59
60918;BME280;46792;38.854;-9.384;2023-06-22T08:01:00;99855.34;;;23.98;63.64
60918;BME280;46792;38.854;-9.384;2023-06-22T08:03:01;99858.13;;;24.39;62.46
60918;BME280;46792;38.854;-9.384;2023-06-22T08:05:04;99854.97;;;24.12;63.31
60918;BME280;46792;38.854;-9.384;2023-06-22T08:07:05;99849.88;;;24.26;62.67
60918;BME280;46792;38.854;-9.384;2023-06-22T08:09:06;99858.06;;;24.51;62.43
60918;BME280;46792;38.854;-9.384;2023-06-22T08:11:25;99857.56;;;24.33;62.48
60918;BME280;46792;38.854;-9.384;2023-06-22T08:13:25;99867.59;;;24.25;62.54
60918;BME280;46792;38.854;-9.384;2023-06-22T08:15:26;99863.69;;;24.26;62.78
60918;BME280;46792;38.854;-9.384;2023-06-22T08:17:27;99870.63;;;24.49;61.94
60918;BME280;46792;38.854;-9.384;2023-06-22T08:19:27;99866.56;;;24.18;63.01
60918;BME280;46792;38.854;-9.384;2023-06-22T08:21:46;99871.81;;;24.76;61.39
60918;BME280;46792;38.854;-9.384;2023-06-22T08:23:48;99875.03;;;24.37;62.04
60918;BME280;46792;38.854;-9.384;2023-06-22T08:25:48;99872.34;;;24.82;60.41
60918;BME280;46792;38.854;-9.384;2023-06-22T08:27:50;99873.66;;;24.72;59.74
60918;BME280;46792;38.854;-9.384;2023-06-22T08:29:51;99884.03;;;24.63;60.18
60918;BME280;46792;38.854;-9.384;2023-06-22T08:31:55;99881.84;;;25.13;59.55
60918;BME280;46792;38.854;-9.384;2023-06-22T08:36:51;99870.19;;;25.67;57.95
60918;BME280;46792;38.854;-9.384;2023-06-22T08:38:52;99873.03;;;25.87;57.46
60918;BME280;46792;38.854;-9.384;2023-06-22T08:40:54;99876.75;;;25.95;57.27
60918;BME280;46792;38.854;-9.384;2023-06-22T08:43:14;99872.69;;;25.89;55.94
60918;BME280;46792;38.854;-9.384;2023-06-22T08:45:15;99878.22;;;25.89;56.15
60918;BME280;46792;38.854;-9.384;2023-06-22T08:47:16;99878.16;;;26.21;55.29
60918;BME280;46792;38.854;-9.384;2023-06-22T08:49:17;99878.22;;;26.64;53.80
60918;BME280;46792;38.854;-9.384;2023-06-22T08:51:17;99879.97;;;26.52;53.87
60918;BME280;46792;38.854;-9.384;2023-06-22T08:53:18;99891.34;;;26.47;54.89
60918;BME280;46792;38.854;-9.384;2023-06-22T08:55:18;99890.69;;;26.73;54.30
60918;BME280;46792;38.854;-9.384;2023-06-22T08:57:20;99895.16;;;26.78;54.07
60918;BME280;46792;38.854;-9.384;2023-06-22T08:59:21;99889.53;;;26.94;53.28
60918;BME280;46792;38.854;-9.384;2023-06-22T09:01:21;99889.44;;;27.10;52.81
60918;BME280;46792;38.854;-9.384;2023-06-22T09:03:22;99887.25;;;27.23;50.85
60918;BME280;46792;38.854;-9.384;2023-06-22T09:05:26;99885.66;;;27.22;50.16
60918;BME280;46792;38.854;-9.384;2023-06-22T09:07:46;99892.50;;;27.05;50.81
60918;BME280;46792;38.854;-9.384;2023-06-22T09:10:05;99895.13;;;26.98;51.36
60918;BME280;46792;38.854;-9.384;2023-06-22T09:12:06;99892.94;;;27.07;51.03
60918;BME280;46792;38.854;-9.384;2023-06-22T09:14:09;99896.69;;;27.18;50.12
60918;BME280;46792;38.854;-9.384;2023-06-22T09:16:09;99896.50;;;27.08;51.07
60918;BME280;46792;38.854;-9.384;2023-06-22T09:18:11;99896.16;;;27.09;51.06
60918;BME280;46792;38.854;-9.384;2023-06-22T09:20:27;99894.16;;;27.10;50.36
60918;BME280;46792;38.854;-9.384;2023-06-22T09:22:28;99899.69;;;27.10;50.67
60918;BME280;46792;38.854;-9.384;2023-06-22T09:24:29;99899.09;;;27.20;49.21
60918;BME280;46792;38.854;-9.384;2023-06-22T09:26:30;99902.66;;;27.44;49.45
60918;BME280;46792;38.854;-9.384;2023-06-22T09:28:31;99903.22;;;27.30;49.81
60918;BME280;46792;38.854;-9.384;2023-06-22T09:30:31;99907.50;;;27.47;51.52
60918;BME280;46792;38.854;-9.384;2023-06-22T09:32:32;99911.91;;;27.75;51.31
60918;BME280;46792;38.854;-9.384;2023-06-22T09:34:32;99914.25;;;28.00;50.23
60918;BME280;46792;38.854;-9.384;2023-06-22T09:36:45;99917.41;;;27.98;48.89
60918;BME280;46792;38.854;-9.384;2023-06-22T09:38:47;99918.00;;;27.84;50.12
60918;BME280;46792;38.854;-9.384;2023-06-22T09:41:10;99919.22;;;28.10;50.98
60918;BME280;46792;38.854;-9.384;2023-06-22T09:43:11;99924.06;;;27.90;49.25
60918;BME280;46792;38.854;-9.384;2023-06-22T09:45:12;99910.97;;;27.90;50.26
60918;BME280;46792;38.854;-9.384;2023-06-22T09:47:16;99922.09;;;27.94;50.84
60918;BME280;46792;38.854;-9.384;2023-06-22T09:49:16;99914.69;;;28.02;50.15
60918;BME280;46792;38.854;-9.384;2023-06-22T09:51:17;99915.91;;;28.28;50.46
60918;BME280;46792;38.854;-9.384;2023-06-22T09:53:19;99915.94;;;28.31;49.61
60918;BME280;46792;38.854;-9.384;2023-06-22T09:55:20;99904.84;;;28.31;48.97
60918;BME280;46792;38.854;-9.384;2023-06-22T09:57:21;99912.09;;;28.40;49.75
60918;BME280;46792;38.854;-9.384;2023-06-22T09:59:22;99909.34;;;28.13;49.33
60918;BME280;46792;38.854;-9.384;2023-06-22T10:01:22;99914.56;;;28.48;48.61
60918;BME280;46792;38.854;-9.384;2023-06-22T10:03:23;99912.72;;;28.29;47.92
60918;BME280;46792;38.854;-9.384;2023-06-22T10:05:24;99912.56;;;28.18;49.82
60918;BME280;46792;38.854;-9.384;2023-06-22T10:07:25;99912.16;;;28.16;49.88
60918;BME280;46792;38.854;-9.384;2023-06-22T10:09:26;99917.97;;;28.34;48.92
60918;BME280;46792;38.854;-9.384;2023-06-22T10:11:26;99919.09;;;28.64;47.98
60918;BME280;46792;38.854;-9.384;2023-06-22T10:13:30;99928.28;;;28.68;48.47
60918;BME280;46792;38.854;-9.384;2023-06-22T10:15:31;99922.38;;;28.69;47.95
60918;BME280;46792;38.854;-9.384;2023-06-22T10:17:31;99934.53;;;28.58;47.85
60918;BME280;46792;38.854;-9.384;2023-06-22T10:19:32;99930.03;;;28.76;47.93
60918;BME280;46792;38.854;-9.384;2023-06-22T10:21:32;99931.06;;;28.68;47.78
60918;BME280;46792;38.854;-9.384;2023-06-22T10:23:33;99936.41;;;28.80;47.89
60918;BME280;46792;38.854;-9.384;2023-06-22T10:25:34;99931.94;;;29.06;47.68
60918;BME280;46792;38.854;-9.384;2023-06-22T10:27:35;99929.50;;;29.01;48.42
60918;BME280;46792;38.854;-9.384;2023-06-22T10:29:36;99933.56;;;29.11;47.86
60918;BME280;46792;38.854;-9.384;2023-06-22T10:31:36;99946.84;;;29.25;47.64
60918;BME280;46792;38.854;-9.384;2023-06-22T10:33:37;99941.44;;;29.02;47.50
60918;BME280;46792;38.854;-9.384;2023-06-22T10:35:38;99932.66;;;28.99;47.41
60918;BME280;46792;38.854;-9.384;2023-06-22T10:37:39;99932.28;;;29.01;47.12
60918;BME280;46792;38.854;-9.384;2023-06-22T10:39:58;99936.94;;;28.93;47.76
60918;BME280;46792;38.854;-9.384;2023-06-22T10:42:17;99931.56;;;28.74;48.31
60918;BME280;46792;38.854;-9.384;2023-06-22T10:44:21;99938.91;;;28.59;48.65
60918;BME280;46792;38.854;-9.384;2023-06-22T10:46:22;99938.09;;;28.89;48.14
60918;BME280;46792;38.854;-9.384;2023-06-22T10:48:22;99937.72;;;28.90;48.10
60918;BME280;46792;38.854;-9.384;2023-06-22T10:50:24;99935.59;;;28.76;47.91
60918;BME280;46792;38.854;-9.384;2023-06-22T10:52:25;99935.31;;;28.58;48.92
60918;BME280;46792;38.854;-9.384;2023-06-22T10:54:25;99930.78;;;28.73;48.49
60918;BME280;46792;38.854;-9.384;2023-06-22T10:56:45;99934.22;;;28.97;48.35
60918;BME280;46792;38.854;-9.384;2023-06-22T10:58:46;99941.03;;;29.03;47.97
60918;BME280;46792;38.854;-9.384;2023-06-22T11:00:46;99939.38;;;28.95;48.02
60918;BME280;46792;38.854;-9.384;2023-06-22T11:02:47;99933.41;;;28.96;47.85
60918;BME280;46792;38.854;-9.384;2023-06-22T11:04:47;99925.72;;;29.20;47.05
60918;BME280;46792;38.854;-9.384;2023-06-22T11:06:48;99929.91;;;29.03;47.89
60918;BME280;46792;38.854;-9.384;2023-06-22T11:08:49;99929.91;;;28.69;48.31
60918;BME280;46792;38.854;-9.384;2023-06-22T11:10:51;99931.72;;;28.88;48.01
60918;BME280;46792;38.854;-9.384;2023-06-22T11:13:22;99929.00;;;28.61;48.62
60918;BME280;46792;38.854;-9.384;2023-06-22T11:15:29;99929.28;;;28.79;48.68
60918;BME280;46792;38.854;-9.384;2023-06-22T11:17:29;99927.75;;;28.86;48.25
60918;BME280;46792;38.854;-9.384;2023-06-22T11:19:30;99936.28;;;29.04;47.65
60918;BME280;46792;38.854;-9.384;2023-06-22T11:21:31;99931.44;;;28.97;48.36
60918;BME280;46792;38.854;-9.384;2023-06-22T11:23:32;99940.69;;;29.08;47.92
60918;BME280;46792;38.854;-9.384;2023-06-22T11:25:33;99928.97;;;29.26;47.66
60918;BME280;46792;38.854;-9.384;2023-06-22T11:29:57;99933.97;;;29.96;45.64
60918;BME280;46792;38.854;-9.384;2023-06-22T11:31:58;99942.94;;;29.78;45.50
60918;BME280;46792;38.854;-9.384;2023-06-22T11:33:58;99937.53;;;29.96;45.55
60918;BME280;46792;38.854;-9.384;2023-06-22T11:40:58;99932.28;;;29.87;45.48
60918;BME280;46792;38.854;-9.384;2023-06-22T11:43:17;99946.56;;;29.37;46.66
60918;BME280;46792;38.854;-9.384;2023-06-22T11:45:17;99946.84;;;29.70;45.56
60918;BME280;46792;38.854;-9.384;2023-06-22T11:47:19;99949.50;;;29.55;46.00
60918;BME280;46792;38.854;-9.384;2023-06-22T11:49:19;99950.63;;;29.92;46.31
60918;BME280;46792;38.854;-9.384;2023-06-22T11:51:20;99951.13;;;30.05;45.67
60918;BME280;46792;38.854;-9.384;2023-06-22T11:53:23;99949.47;;;29.97;45.87
60918;BME280;46792;38.854;-9.384;2023-06-22T11:55:24;99940.06;;;30.16;44.91
60918;BME280;46792;38.854;-9.384;2023-06-22T11:57:25;99950.41;;;30.15;45.05
60918;BME280;46792;38.854;-9.384;2023-06-22T11:59:25;99948.06;;;30.25;44.76
60918;BME280;46792;38.854;-9.384;2023-06-22T12:01:26;99936.22;;;30.46;44.58
60918;BME280;46792;38.854;-9.384;2023-06-22T12:03:27;99949.25;;;30.27;44.79
60918;BME280;46792;38.854;-9.384;2023-06-22T12:05:27;99960.31;;;30.09;44.88
60918;BME280;46792;38.854;-9.384;2023-06-22T12:07:28;99943.81;;;29.86;45.43
60918;BME280;46792;38.854;-9.384;2023-06-22T12:09:29;99947.25;;;29.68;45.90
60918;BME280;46792;38.854;-9.384;2023-06-22T12:11:29;99951.75;;;29.84;45.20
60918;BME280;46792;38.854;-9.384;2023-06-22T12:13:30;99955.72;;;29.86;44.24
60918;BME280;46792;38.854;-9.384;2023-06-22T12:15:31;99954.00;;;29.67;45.33
60918;BME280;46792;38.854;-9.384;2023-06-22T12:17:50;99943.59;;;29.61;45.02
60918;BME280;46792;38.854;-9.384;2023-06-22T12:19:50;99948.84;;;29.69;45.52